sensor_id;sensor_type;location;lat;lon;timestamp;P1;durP1;ratioP1;P2;durP2;ratioP2
6665;SDS011;3369;49.906;8.598;2023-07-31T00:00:24;3.23;;;1.70;;
6665;SDS011;3369;49.906;8.598;2023-07-31T00:02:51;1.93;;;1.37;;
6665;SDS011;3369;49.906;8.598;2023-07-31T00:05:17;2.83;;;1.60;;
6665;SDS011;3369;49.906;8.598;2023-07-31T00:07:43;3.63;;;1.50;;
6665;SDS011;3369;49.906;8.598;2023-07-31T00:10:08;3.80;;;1.80;;
6665;SDS011;3369;49.906;8.598;2023-07-31T00:12:34;2.20;;;1.23;;
6665;SDS011;3369;49.906;8.598;2023-07-31T00:15:00;3.23;;;1.27;;
6665;SDS011;3369;49.906;8.598;2023-07-31T00:17:26;5.70;;;1.60;;
6665;SDS011;3369;49.906;8.598;2023-07-31T00:19:51;3.17;;;1.60;;
6665;SDS011;3369;49.906;8.598;2023-07-31T00:22:17;4.27;;;1.30;;
6665;SDS011;3369;49.906;8.598;2023-07-31T00:24:43;1.97;;;1.20;;
6665;SDS011;3369;49.906;8.598;2023-07-31T00:27:08;1.33;;;1.23;;
6665;SDS011;3369;49.906;8.598;2023-07-31T00:29:34;6.40;;;1.63;;
6665;SDS011;3369;49.906;8.598;2023-07-31T00:31:59;3.03;;;1.40;;
6665;SDS011;3369;49.906;8.598;2023-07-31T00:34:26;3.40;;;1.77;;
6665;SDS011;3369;49.906;8.598;2023-07-31T00:36:51;3.03;;;1.50;;
6665;SDS011;3369;49.906;8.598;2023-07-31T00:39:17;3.00;;;1.60;;
6665;SDS011;3369;49.906;8.598;2023-07-31T00:41:42;3.13;;;1.60;;
6665;SDS011;3369;49.906;8.598;2023-07-31T00:44:08;3.03;;;1.60;;
6665;SDS011;3369;49.906;8.598;2023-07-31T00:46:33;2.17;;;1.67;;
6665;SDS011;3369;49.906;8.598;2023-07-31T00:48:59;3.63;;;1.40;;
6665;SDS011;3369;49.906;8.598;2023-07-31T00:51:25;4.10;;;1.80;;
6665;SDS011;3369;49.906;8.598;2023-07-31T00:53:51;2.97;;;1.47;;
6665;SDS011;3369;49.906;8.598;2023-07-31T00:56:19;3.97;;;1.43;;
6665;SDS011;3369;49.906;8.598;2023-07-31T00:58:44;2.80;;;1.50;;
6665;SDS011;3369;49.906;8.598;2023-07-31T01:01:10;2.80;;;1.43;;
6665;SDS011;3369;49.906;8.598;2023-07-31T01:03:36;3.60;;;1.43;;
6665;SDS011;3369;49.906;8.598;2023-07-31T01:06:05;4.73;;;1.80;;
6665;SDS011;3369;49.906;8.598;2023-07-31T01:09:02;3.20;;;1.33;;
6665;SDS011;3369;49.906;8.598;2023-07-31T01:11:32;5.43;;;1.43;;
6665;SDS011;3369;49.906;8.598;2023-07-31T01:14:03;2.57;;;1.60;;
6665;SDS011;3369;49.906;8.598;2023-07-31T01:16:29;3.27;;;1.63;;
6665;SDS011;3369;49.906;8.598;2023-07-31T01:18:55;3.43;;;1.60;;
6665;SDS011;3369;49.906;8.598;2023-07-31T01:24:07;2.40;;;1.50;;
6665;SDS011;3369;49.906;8.598;2023-07-31T01:26:39;2.83;;;1.57;;
6665;SDS011;3369;49.906;8.598;2023-07-31T01:31:46;2.83;;;1.90;;
6665;SDS011;3369;49.906;8.598;2023-07-31T01:34:14;2.47;;;1.50;;
6665;SDS011;3369;49.906;8.598;2023-07-31T01:36:43;3.00;;;1.40;;
6665;SDS011;3369;49.906;8.598;2023-07-31T01:39:09;3.50;;;1.60;;
6665;SDS011;3369;49.906;8.598;2023-07-31T01:41:35;3.97;;;1.50;;
6665;SDS011;3369;49.906;8.598;2023-07-31T01:44:00;2.33;;;1.50;;
6665;SDS011;3369;49.906;8.598;2023-07-31T01:46:26;4.00;;;1.57;;
6665;SDS011;3369;49.906;8.598;2023-07-31T01:48:51;2.43;;;1.60;;
6665;SDS011;3369;49.906;8.598;2023-07-31T01:51:17;3.57;;;1.67;;
6665;SDS011;3369;49.906;8.598;2023-07-31T01:53:42;3.33;;;1.70;;
6665;SDS011;3369;49.906;8.598;2023-07-31T01:56:08;2.40;;;1.70;;
6665;SDS011;3369;49.906;8.598;2023-07-31T01:58:34;2.00;;;1.40;;
6665;SDS011;3369;49.906;8.598;2023-07-31T02:00:59;5.53;;;2.10;;
6665;SDS011;3369;49.906;8.598;2023-07-31T02:03:25;5.23;;;1.87;;
6665;SDS011;3369;49.906;8.598;2023-07-31T02:05:50;3.03;;;1.83;;
6665;SDS011;3369;49.906;8.598;2023-07-31T02:08:16;3.20;;;1.53;;
6665;SDS011;3369;49.906;8.598;2023-07-31T02:10:42;3.13;;;1.67;;
6665;SDS011;3369;49.906;8.598;2023-07-31T02:13:08;4.07;;;1.53;;
6665;SDS011;3369;49.906;8.598;2023-07-31T02:15:34;3.97;;;1.50;;
6665;SDS011;3369;49.906;8.598;2023-07-31T02:17:59;3.53;;;1.80;;
6665;SDS011;3369;49.906;8.598;2023-07-31T02:20:25;2.53;;;1.80;;
6665;SDS011;3369;49.906;8.598;2023-07-31T02:22:51;2.90;;;1.83;;
6665;SDS011;3369;49.906;8.598;2023-07-31T02:25:16;4.30;;;1.73;;
6665;SDS011;3369;49.906;8.598;2023-07-31T02:27:42;3.27;;;1.87;;
6665;SDS011;3369;49.906;8.598;2023-07-31T02:30:08;3.77;;;1.70;;
6665;SDS011;3369;49.906;8.598;2023-07-31T02:32:34;2.20;;;1.63;;
6665;SDS011;3369;49.906;8.598;2023-07-31T02:34:59;1.70;;;1.47;;
6665;SDS011;3369;49.906;8.598;2023-07-31T02:37:25;3.57;;;1.70;;
6665;SDS011;3369;49.906;8.598;2023-07-31T02:39:51;5.53;;;1.97;;
6665;SDS011;3369;49.906;8.598;2023-07-31T02:42:16;4.47;;;1.90;;
6665;SDS011;3369;49.906;8.598;2023-07-31T02:44:42;3.30;;;1.97;;
6665;SDS011;3369;49.906;8.598;2023-07-31T02:47:07;3.83;;;1.83;;
6665;SDS011;3369;49.906;8.598;2023-07-31T02:49:33;1.93;;;1.53;;
6665;SDS011;3369;49.906;8.598;2023-07-31T02:51:59;3.83;;;1.80;;
6665;SDS011;3369;49.906;8.598;2023-07-31T02:54:24;2.40;;;1.53;;
6665;SDS011;3369;49.906;8.598;2023-07-31T02:56:50;4.87;;;1.97;;
6665;SDS011;3369;49.906;8.598;2023-07-31T02:59:16;3.50;;;1.70;;
6665;SDS011;3369;49.906;8.598;2023-07-31T03:01:43;2.13;;;1.83;;
6665;SDS011;3369;49.906;8.598;2023-07-31T03:04:09;3.27;;;1.90;;
6665;SDS011;3369;49.906;8.598;2023-07-31T03:06:34;3.63;;;2.00;;
6665;SDS011;3369;49.906;8.598;2023-07-31T03:09:00;3.93;;;2.17;;
6665;SDS011;3369;49.906;8.598;2023-07-31T03:11:25;4.97;;;2.37;;
6665;SDS011;3369;49.906;8.598;2023-07-31T03:13:51;2.93;;;2.07;;
6665;SDS011;3369;49.906;8.598;2023-07-31T03:16:17;3.93;;;2.10;;
6665;SDS011;3369;49.906;8.598;2023-07-31T03:18:42;3.50;;;1.87;;
6665;SDS011;3369;49.906;8.598;2023-07-31T03:21:08;2.70;;;1.60;;
6665;SDS011;3369;49.906;8.598;2023-07-31T03:23:34;3.23;;;1.87;;
6665;SDS011;3369;49.906;8.598;2023-07-31T03:26:00;3.00;;;2.03;;
6665;SDS011;3369;49.906;8.598;2023-07-31T03:28:28;3.27;;;1.87;;
6665;SDS011;3369;49.906;8.598;2023-07-31T03:30:54;5.07;;;1.67;;
6665;SDS011;3369;49.906;8.598;2023-07-31T03:33:20;5.23;;;2.23;;
6665;SDS011;3369;49.906;8.598;2023-07-31T03:35:46;5.33;;;2.20;;
6665;SDS011;3369;49.906;8.598;2023-07-31T03:38:11;2.73;;;1.63;;
6665;SDS011;3369;49.906;8.598;2023-07-31T03:40:37;5.33;;;2.33;;
6665;SDS011;3369;49.906;8.598;2023-07-31T03:43:03;2.93;;;1.77;;
6665;SDS011;3369;49.906;8.598;2023-07-31T03:45:28;6.60;;;2.27;;
6665;SDS011;3369;49.906;8.598;2023-07-31T03:47:54;5.67;;;2.30;;
6665;SDS011;3369;49.906;8.598;2023-07-31T03:50:20;2.27;;;1.87;;
6665;SDS011;3369;49.906;8.598;2023-07-31T03:52:46;3.83;;;2.17;;
6665;SDS011;3369;49.906;8.598;2023-07-31T03:55:11;2.67;;;1.87;;
6665;SDS011;3369;49.906;8.598;2023-07-31T03:57:37;4.33;;;2.23;;
6665;SDS011;3369;49.906;8.598;2023-07-31T04:00:03;4.97;;;1.90;;
6665;SDS011;3369;49.906;8.598;2023-07-31T04:02:29;2.50;;;1.80;;
6665;SDS011;3369;49.906;8.598;2023-07-31T04:04:54;6.03;;;1.93;;
6665;SDS011;3369;49.906;8.598;2023-07-31T04:07:20;5.93;;;2.33;;
6665;SDS011;3369;49.906;8.598;2023-07-31T04:09:45;6.50;;;2.60;;
6665;SDS011;3369;49.906;8.598;2023-07-31T04:12:11;3.57;;;1.97;;
6665;SDS011;3369;49.906;8.598;2023-07-31T04:14:36;4.67;;;2.40;;
6665;SDS011;3369;49.906;8.598;2023-07-31T04:17:02;3.83;;;2.10;;
6665;SDS011;3369;49.906;8.598;2023-07-31T04:19:28;4.10;;;1.90;;
6665;SDS011;3369;49.906;8.598;2023-07-31T04:21:53;3.53;;;2.10;;
6665;SDS011;3369;49.906;8.598;2023-07-31T04:24:19;4.63;;;2.00;;
6665;SDS011;3369;49.906;8.598;2023-07-31T04:26:49;3.93;;;2.10;;
6665;SDS011;3369;49.906;8.598;2023-07-31T04:29:16;4.70;;;2.03;;
6665;SDS011;3369;49.906;8.598;2023-07-31T04:31:41;5.53;;;2.13;;
6665;SDS011;3369;49.906;8.598;2023-07-31T04:34:07;2.37;;;1.83;;
6665;SDS011;3369;49.906;8.598;2023-07-31T04:36:33;4.10;;;2.20;;
6665;SDS011;3369;49.906;8.598;2023-07-31T04:38:59;4.53;;;2.07;;
6665;SDS011;3369;49.906;8.598;2023-07-31T04:41:25;2.80;;;1.83;;
6665;SDS011;3369;49.906;8.598;2023-07-31T04:43:51;5.43;;;2.17;;
6665;SDS011;3369;49.906;8.598;2023-07-31T04:46:16;3.87;;;2.10;;
6665;SDS011;3369;49.906;8.598;2023-07-31T04:48:42;3.03;;;1.90;;
6665;SDS011;3369;49.906;8.598;2023-07-31T04:51:08;5.00;;;2.37;;
6665;SDS011;3369;49.906;8.598;2023-07-31T04:53:36;3.10;;;1.80;;
6665;SDS011;3369;49.906;8.598;2023-07-31T04:56:02;3.20;;;1.97;;
6665;SDS011;3369;49.906;8.598;2023-07-31T04:58:28;5.10;;;2.50;;
6665;SDS011;3369;49.906;8.598;2023-07-31T05:00:53;4.63;;;2.37;;
6665;SDS011;3369;49.906;8.598;2023-07-31T05:03:19;5.93;;;2.27;;
6665;SDS011;3369;49.906;8.598;2023-07-31T05:05:45;4.97;;;2.80;;
6665;SDS011;3369;49.906;8.598;2023-07-31T05:08:10;4.20;;;2.00;;
6665;SDS011;3369;49.906;8.598;2023-07-31T05:10:36;3.47;;;2.00;;
6665;SDS011;3369;49.906;8.598;2023-07-31T05:13:01;4.60;;;1.93;;
6665;SDS011;3369;49.906;8.598;2023-07-31T05:15:27;3.30;;;1.90;;
6665;SDS011;3369;49.906;8.598;2023-07-31T05:17:53;5.97;;;2.10;;
6665;SDS011;3369;49.906;8.598;2023-07-31T05:20:19;3.20;;;2.03;;
6665;SDS011;3369;49.906;8.598;2023-07-31T05:22:44;3.97;;;2.00;;
6665;SDS011;3369;49.906;8.598;2023-07-31T05:25:10;3.30;;;2.20;;
6665;SDS011;3369;49.906;8.598;2023-07-31T05:27:35;3.03;;;2.07;;
6665;SDS011;3369;49.906;8.598;2023-07-31T05:30:01;4.33;;;2.10;;
6665;SDS011;3369;49.906;8.598;2023-07-31T05:32:27;5.43;;;2.30;;
6665;SDS011;3369;49.906;8.598;2023-07-31T05:34:53;5.10;;;2.17;;
6665;SDS011;3369;49.906;8.598;2023-07-31T05:37:19;5.30;;;2.63;;
6665;SDS011;3369;49.906;8.598;2023-07-31T05:39:45;2.97;;;2.30;;
6665;SDS011;3369;49.906;8.598;2023-07-31T05:42:10;4.37;;;2.40;;
6665;SDS011;3369;49.906;8.598;2023-07-31T05:44:36;4.17;;;2.07;;
6665;SDS011;3369;49.906;8.598;2023-07-31T05:47:01;3.33;;;2.17;;
6665;SDS011;3369;49.906;8.598;2023-07-31T05:49:27;3.63;;;1.93;;
6665;SDS011;3369;49.906;8.598;2023-07-31T05:51:54;4.53;;;2.10;;
6665;SDS011;3369;49.906;8.598;2023-07-31T05:54:19;3.73;;;2.20;;
6665;SDS011;3369;49.906;8.598;2023-07-31T05:56:45;6.00;;;2.23;;
6665;SDS011;3369;49.906;8.598;2023-07-31T05:59:11;5.03;;;2.50;;
6665;SDS011;3369;49.906;8.598;2023-07-31T06:01:38;4.00;;;2.50;;
6665;SDS011;3369;49.906;8.598;2023-07-31T06:04:04;3.43;;;2.20;;
6665;SDS011;3369;49.906;8.598;2023-07-31T06:06:29;4.83;;;2.20;;
6665;SDS011;3369;49.906;8.598;2023-07-31T06:08:55;4.93;;;2.20;;
6665;SDS011;3369;49.906;8.598;2023-07-31T06:11:21;4.30;;;2.13;;
6665;SDS011;3369;49.906;8.598;2023-07-31T06:13:48;5.83;;;2.50;;
6665;SDS011;3369;49.906;8.598;2023-07-31T06:16:15;5.00;;;2.33;;
6665;SDS011;3369;49.906;8.598;2023-07-31T06:18:41;10.03;;;2.30;;
6665;SDS011;3369;49.906;8.598;2023-07-31T06:21:07;4.53;;;2.57;;
6665;SDS011;3369;49.906;8.598;2023-07-31T06:23:33;7.67;;;2.50;;
6665;SDS011;3369;49.906;8.598;2023-07-31T06:25:58;4.13;;;2.17;;
6665;SDS011;3369;49.906;8.598;2023-07-31T06:28:27;4.73;;;2.40;;
6665;SDS011;3369;49.906;8.598;2023-07-31T06:30:57;7.47;;;2.90;;
6665;SDS011;3369;49.906;8.598;2023-07-31T06:33:24;5.20;;;2.40;;
6665;SDS011;3369;49.906;8.598;2023-07-31T06:35:50;3.47;;;2.20;;
6665;SDS011;3369;49.906;8.598;2023-07-31T06:38:15;3.80;;;1.63;;
6665;SDS011;3369;49.906;8.598;2023-07-31T06:40:43;6.13;;;1.90;;
6665;SDS011;3369;49.906;8.598;2023-07-31T06:43:09;5.60;;;2.10;;
6665;SDS011;3369;49.906;8.598;2023-07-31T06:45:34;4.67;;;2.33;;
6665;SDS011;3369;49.906;8.598;2023-07-31T06:48:01;6.57;;;2.50;;
6665;SDS011;3369;49.906;8.598;2023-07-31T06:50:31;5.53;;;2.20;;
6665;SDS011;3369;49.906;8.598;2023-07-31T06:52:56;7.30;;;2.90;;
6665;SDS011;3369;49.906;8.598;2023-07-31T06:55:22;4.60;;;2.23;;
6665;SDS011;3369;49.906;8.598;2023-07-31T06:57:49;6.63;;;2.63;;
6665;SDS011;3369;49.906;8.598;2023-07-31T07:00:17;3.13;;;2.33;;
6665;SDS011;3369;49.906;8.598;2023-07-31T07:02:43;3.63;;;2.10;;
6665;SDS011;3369;49.906;8.598;2023-07-31T07:05:09;6.47;;;2.40;;
6665;SDS011;3369;49.906;8.598;2023-07-31T07:07:35;8.43;;;2.43;;
6665;SDS011;3369;49.906;8.598;2023-07-31T07:10:01;6.23;;;2.53;;
6665;SDS011;3369;49.906;8.598;2023-07-31T07:12:31;5.07;;;2.17;;
6665;SDS011;3369;49.906;8.598;2023-07-31T07:14:58;4.13;;;2.20;;
6665;SDS011;3369;49.906;8.598;2023-07-31T07:17:24;7.80;;;2.97;;
6665;SDS011;3369;49.906;8.598;2023-07-31T07:19:50;7.97;;;2.33;;
6665;SDS011;3369;49.906;8.598;2023-07-31T07:22:16;4.47;;;2.60;;
6665;SDS011;3369;49.906;8.598;2023-07-31T07:24:42;2.97;;;2.30;;
6665;SDS011;3369;49.906;8.598;2023-07-31T07:27:08;5.27;;;2.47;;
6665;SDS011;3369;49.906;8.598;2023-07-31T07:29:34;5.53;;;2.53;;
6665;SDS011;3369;49.906;8.598;2023-07-31T07:32:00;5.17;;;2.13;;
6665;SDS011;3369;49.906;8.598;2023-07-31T07:34:26;10.40;;;2.60;;
6665;SDS011;3369;49.906;8.598;2023-07-31T07:36:52;4.47;;;2.27;;
6665;SDS011;3369;49.906;8.598;2023-07-31T07:39:18;4.77;;;2.27;;
6665;SDS011;3369;49.906;8.598;2023-07-31T07:41:45;3.70;;;2.57;;
6665;SDS011;3369;49.906;8.598;2023-07-31T07:44:11;5.63;;;2.23;;
6665;SDS011;3369;49.906;8.598;2023-07-31T07:46:38;5.37;;;2.70;;
6665;SDS011;3369;49.906;8.598;2023-07-31T07:49:04;4.80;;;2.60;;
6665;SDS011;3369;49.906;8.598;2023-07-31T07:51:30;6.20;;;2.80;;
6665;SDS011;3369;49.906;8.598;2023-07-31T07:53:57;5.17;;;2.57;;
6665;SDS011;3369;49.906;8.598;2023-07-31T07:56:23;4.37;;;2.50;;
6665;SDS011;3369;49.906;8.598;2023-07-31T07:58:50;5.40;;;2.40;;
6665;SDS011;3369;49.906;8.598;2023-07-31T08:01:16;6.17;;;2.40;;
6665;SDS011;3369;49.906;8.598;2023-07-31T08:03:41;9.10;;;2.30;;
6665;SDS011;3369;49.906;8.598;2023-07-31T08:06:07;7.30;;;2.77;;
6665;SDS011;3369;49.906;8.598;2023-07-31T08:08:34;3.27;;;1.90;;
6665;SDS011;3369;49.906;8.598;2023-07-31T08:11:00;3.30;;;2.40;;
6665;SDS011;3369;49.906;8.598;2023-07-31T08:13:26;4.03;;;2.23;;
6665;SDS011;3369;49.906;8.598;2023-07-31T08:15:52;5.93;;;2.40;;
6665;SDS011;3369;49.906;8.598;2023-07-31T08:18:17;4.13;;;2.33;;
6665;SDS011;3369;49.906;8.598;2023-07-31T08:20:44;4.13;;;2.40;;
6665;SDS011;3369;49.906;8.598;2023-07-31T08:23:09;5.10;;;2.53;;
6665;SDS011;3369;49.906;8.598;2023-07-31T08:25:35;4.00;;;2.47;;
6665;SDS011;3369;49.906;8.598;2023-07-31T08:28:01;5.53;;;2.23;;
6665;SDS011;3369;49.906;8.598;2023-07-31T08:30:28;4.00;;;2.30;;
6665;SDS011;3369;49.906;8.598;2023-07-31T08:32:53;5.33;;;2.87;;
6665;SDS011;3369;49.906;8.598;2023-07-31T08:35:19;5.20;;;2.40;;
6665;SDS011;3369;49.906;8.598;2023-07-31T08:37:45;5.90;;;2.43;;
6665;SDS011;3369;49.906;8.598;2023-07-31T08:40:10;4.53;;;2.50;;
6665;SDS011;3369;49.906;8.598;2023-07-31T08:42:45;3.43;;;1.97;;
6665;SDS011;3369;49.906;8.598;2023-07-31T08:45:13;3.50;;;2.40;;
6665;SDS011;3369;49.906;8.598;2023-07-31T08:47:42;6.00;;;2.90;;
6665;SDS011;3369;49.906;8.598;2023-07-31T08:50:10;6.57;;;2.37;;
6665;SDS011;3369;49.906;8.598;2023-07-31T08:52:38;4.73;;;2.27;;
6665;SDS011;3369;49.906;8.598;2023-07-31T08:55:04;3.77;;;2.10;;
6665;SDS011;3369;49.906;8.598;2023-07-31T08:57:31;7.13;;;2.63;;
6665;SDS011;3369;49.906;8.598;2023-07-31T08:59:59;3.87;;;2.40;;
6665;SDS011;3369;49.906;8.598;2023-07-31T09:02:26;4.60;;;2.37;;
6665;SDS011;3369;49.906;8.598;2023-07-31T09:05:08;2.93;;;2.47;;
6665;SDS011;3369;49.906;8.598;2023-07-31T09:07:35;6.63;;;2.60;;
6665;SDS011;3369;49.906;8.598;2023-07-31T09:10:02;4.97;;;2.33;;
6665;SDS011;3369;49.906;8.598;2023-07-31T09:12:29;4.50;;;2.23;;
6665;SDS011;3369;49.906;8.598;2023-07-31T09:14:56;4.27;;;2.30;;
6665;SDS011;3369;49.906;8.598;2023-07-31T09:17:32;3.13;;;2.20;;
6665;SDS011;3369;49.906;8.598;2023-07-31T09:20:20;6.40;;;2.30;;
6665;SDS011;3369;49.906;8.598;2023-07-31T09:22:46;6.43;;;2.20;;
6665;SDS011;3369;49.906;8.598;2023-07-31T09:25:20;9.07;;;2.63;;
6665;SDS011;3369;49.906;8.598;2023-07-31T09:30:16;5.13;;;2.63;;
6665;SDS011;3369;49.906;8.598;2023-07-31T09:32:43;4.43;;;2.20;;
6665;SDS011;3369;49.906;8.598;2023-07-31T09:35:27;3.40;;;2.30;;
6665;SDS011;3369;49.906;8.598;2023-07-31T09:37:58;7.37;;;2.57;;
6665;SDS011;3369;49.906;8.598;2023-07-31T09:40:35;6.47;;;2.70;;
6665;SDS011;3369;49.906;8.598;2023-07-31T09:43:11;3.13;;;2.43;;
6665;SDS011;3369;49.906;8.598;2023-07-31T09:45:40;4.88;;;2.10;;
6665;SDS011;3369;49.906;8.598;2023-07-31T09:48:13;4.87;;;2.60;;
6665;SDS011;3369;49.906;8.598;2023-07-31T09:50:46;5.37;;;2.50;;
6665;SDS011;3369;49.906;8.598;2023-07-31T09:53:13;4.53;;;2.17;;
6665;SDS011;3369;49.906;8.598;2023-07-31T09:55:40;3.90;;;2.47;;
6665;SDS011;3369;49.906;8.598;2023-07-31T09:58:07;5.47;;;2.47;;
6665;SDS011;3369;49.906;8.598;2023-07-31T10:00:34;3.53;;;2.40;;
6665;SDS011;3369;49.906;8.598;2023-07-31T10:03:01;4.90;;;2.80;;
6665;SDS011;3369;49.906;8.598;2023-07-31T10:05:34;3.80;;;2.57;;
6665;SDS011;3369;49.906;8.598;2023-07-31T10:08:09;5.93;;;2.77;;
6665;SDS011;3369;49.906;8.598;2023-07-31T10:10:39;4.30;;;2.37;;
6665;SDS011;3369;49.906;8.598;2023-07-31T10:13:07;7.13;;;2.93;;
6665;SDS011;3369;49.906;8.598;2023-07-31T10:15:34;6.53;;;2.97;;
6665;SDS011;3369;49.906;8.598;2023-07-31T10:18:00;3.73;;;2.73;;
6665;SDS011;3369;49.906;8.598;2023-07-31T10:20:26;4.03;;;2.33;;
6665;SDS011;3369;49.906;8.598;2023-07-31T10:22:54;3.83;;;2.37;;
6665;SDS011;3369;49.906;8.598;2023-07-31T10:25:21;4.17;;;2.67;;
6665;SDS011;3369;49.906;8.598;2023-07-31T10:27:47;6.40;;;2.87;;
6665;SDS011;3369;49.906;8.598;2023-07-31T10:30:15;4.57;;;2.50;;
6665;SDS011;3369;49.906;8.598;2023-07-31T10:32:43;7.20;;;2.97;;
6665;SDS011;3369;49.906;8.598;2023-07-31T10:35:10;5.17;;;2.80;;
6665;SDS011;3369;49.906;8.598;2023-07-31T10:40:09;3.33;;;2.00;;
6665;SDS011;3369;49.906;8.598;2023-07-31T10:42:51;4.90;;;2.77;;
6665;SDS011;3369;49.906;8.598;2023-07-31T10:50:32;4.63;;;2.80;;
6665;SDS011;3369;49.906;8.598;2023-07-31T10:53:03;3.63;;;2.13;;
6665;SDS011;3369;49.906;8.598;2023-07-31T10:55:30;4.50;;;2.80;;
6665;SDS011;3369;49.906;8.598;2023-07-31T10:58:10;5.97;;;3.00;;
6665;SDS011;3369;49.906;8.598;2023-07-31T11:00:37;4.40;;;2.30;;
6665;SDS011;3369;49.906;8.598;2023-07-31T11:08:15;3.60;;;2.40;;
6665;SDS011;3369;49.906;8.598;2023-07-31T11:10:42;4.20;;;2.60;;
6665;SDS011;3369;49.906;8.598;2023-07-31T11:13:08;4.73;;;2.47;;
6665;SDS011;3369;49.906;8.598;2023-07-31T11:15:34;3.50;;;2.37;;
6665;SDS011;3369;49.906;8.598;2023-07-31T11:18:00;6.05;;;3.17;;
6665;SDS011;3369;49.906;8.598;2023-07-31T11:20:32;5.20;;;2.80;;
6665;SDS011;3369;49.906;8.598;2023-07-31T11:23:00;6.03;;;2.80;;
6665;SDS011;3369;49.906;8.598;2023-07-31T11:25:30;2.83;;;2.33;;
6665;SDS011;3369;49.906;8.598;2023-07-31T11:27:58;3.73;;;2.40;;
6665;SDS011;3369;49.906;8.598;2023-07-31T11:30:28;5.13;;;2.60;;
6665;SDS011;3369;49.906;8.598;2023-07-31T11:32:54;6.22;;;2.35;;
6665;SDS011;3369;49.906;8.598;2023-07-31T11:35:21;4.73;;;2.60;;
6665;SDS011;3369;49.906;8.598;2023-07-31T11:37:47;3.13;;;2.10;;
6665;SDS011;3369;49.906;8.598;2023-07-31T11:40:13;5.73;;;2.70;;
6665;SDS011;3369;49.906;8.598;2023-07-31T11:42:40;6.50;;;2.72;;
6665;SDS011;3369;49.906;8.598;2023-07-31T11:45:09;4.93;;;2.60;;
6665;SDS011;3369;49.906;8.598;2023-07-31T11:47:36;4.30;;;2.30;;
6665;SDS011;3369;49.906;8.598;2023-07-31T11:50:03;5.67;;;2.83;;
6665;SDS011;3369;49.906;8.598;2023-07-31T11:52:30;5.10;;;2.60;;
6665;SDS011;3369;49.906;8.598;2023-07-31T11:55:02;4.20;;;2.73;;
6665;SDS011;3369;49.906;8.598;2023-07-31T11:57:29;4.67;;;2.80;;
6665;SDS011;3369;49.906;8.598;2023-07-31T11:59:55;2.90;;;2.60;;
6665;SDS011;3369;49.906;8.598;2023-07-31T12:02:22;3.93;;;2.57;;
6665;SDS011;3369;49.906;8.598;2023-07-31T12:04:48;3.63;;;2.47;;
6665;SDS011;3369;49.906;8.598;2023-07-31T12:07:14;3.10;;;2.57;;
6665;SDS011;3369;49.906;8.598;2023-07-31T12:09:50;5.40;;;2.43;;
6665;SDS011;3369;49.906;8.598;2023-07-31T12:12:21;5.20;;;2.10;;
6665;SDS011;3369;49.906;8.598;2023-07-31T12:14:48;3.47;;;2.60;;
6665;SDS011;3369;49.906;8.598;2023-07-31T12:17:15;3.43;;;2.60;;
6665;SDS011;3369;49.906;8.598;2023-07-31T12:19:42;4.20;;;2.43;;
6665;SDS011;3369;49.906;8.598;2023-07-31T12:22:14;6.20;;;2.47;;
6665;SDS011;3369;49.906;8.598;2023-07-31T12:24:41;3.70;;;2.47;;
6665;SDS011;3369;49.906;8.598;2023-07-31T12:27:14;4.60;;;2.77;;
6665;SDS011;3369;49.906;8.598;2023-07-31T12:29:43;5.00;;;2.90;;
6665;SDS011;3369;49.906;8.598;2023-07-31T12:32:22;4.43;;;2.20;;
6665;SDS011;3369;49.906;8.598;2023-07-31T12:34:53;2.73;;;2.20;;
6665;SDS011;3369;49.906;8.598;2023-07-31T12:37:20;6.00;;;2.60;;
6665;SDS011;3369;49.906;8.598;2023-07-31T12:39:46;5.20;;;2.30;;
6665;SDS011;3369;49.906;8.598;2023-07-31T12:42:12;4.10;;;2.55;;
6665;SDS011;3369;49.906;8.598;2023-07-31T12:44:38;4.33;;;2.43;;
6665;SDS011;3369;49.906;8.598;2023-07-31T12:47:03;3.60;;;2.27;;
6665;SDS011;3369;49.906;8.598;2023-07-31T12:49:29;4.15;;;2.65;;
6665;SDS011;3369;49.906;8.598;2023-07-31T12:51:55;5.57;;;2.92;;
6665;SDS011;3369;49.906;8.598;2023-07-31T12:54:21;4.93;;;2.72;;
6665;SDS011;3369;49.906;8.598;2023-07-31T12:56:47;5.93;;;2.90;;
6665;SDS011;3369;49.906;8.598;2023-07-31T12:59:12;3.78;;;2.50;;
6665;SDS011;3369;49.906;8.598;2023-07-31T13:01:39;4.93;;;2.33;;
6665;SDS011;3369;49.906;8.598;2023-07-31T13:04:04;4.75;;;2.65;;
6665;SDS011;3369;49.906;8.598;2023-07-31T13:06:30;4.17;;;2.10;;
6665;SDS011;3369;49.906;8.598;2023-07-31T13:08:56;5.80;;;2.97;;
6665;SDS011;3369;49.906;8.598;2023-07-31T13:11:21;4.03;;;2.60;;
6665;SDS011;3369;49.906;8.598;2023-07-31T13:13:47;4.50;;;2.40;;
6665;SDS011;3369;49.906;8.598;2023-07-31T13:16:13;2.80;;;2.30;;
6665;SDS011;3369;49.906;8.598;2023-07-31T13:18:38;4.03;;;2.60;;
6665;SDS011;3369;49.906;8.598;2023-07-31T13:21:04;4.53;;;2.87;;
6665;SDS011;3369;49.906;8.598;2023-07-31T13:23:30;4.70;;;2.83;;
6665;SDS011;3369;49.906;8.598;2023-07-31T13:25:55;4.97;;;2.40;;
6665;SDS011;3369;49.906;8.598;2023-07-31T13:28:21;3.22;;;2.65;;
6665;SDS011;3369;49.906;8.598;2023-07-31T13:30:47;3.10;;;2.30;;
6665;SDS011;3369;49.906;8.598;2023-07-31T13:33:12;3.78;;;2.15;;
6665;SDS011;3369;49.906;8.598;2023-07-31T13:35:38;3.97;;;2.80;;
6665;SDS011;3369;49.906;8.598;2023-07-31T13:38:04;2.25;;;2.05;;
6665;SDS011;3369;49.906;8.598;2023-07-31T13:40:30;4.00;;;2.30;;
6665;SDS011;3369;49.906;8.598;2023-07-31T13:42:56;4.07;;;2.77;;
6665;SDS011;3369;49.906;8.598;2023-07-31T13:45:21;3.20;;;2.75;;
6665;SDS011;3369;49.906;8.598;2023-07-31T13:47:48;3.17;;;2.20;;
6665;SDS011;3369;49.906;8.598;2023-07-31T13:50:15;2.58;;;2.38;;
6665;SDS011;3369;49.906;8.598;2023-07-31T13:52:41;5.43;;;2.53;;
6665;SDS011;3369;49.906;8.598;2023-07-31T13:55:07;3.85;;;2.17;;
6665;SDS011;3369;49.906;8.598;2023-07-31T13:57:33;3.00;;;2.10;;
6665;SDS011;3369;49.906;8.598;2023-07-31T13:59:59;4.60;;;2.67;;
6665;SDS011;3369;49.906;8.598;2023-07-31T14:02:25;3.63;;;2.40;;
6665;SDS011;3369;49.906;8.598;2023-07-31T14:04:51;3.20;;;2.70;;
6665;SDS011;3369;49.906;8.598;2023-07-31T14:07:17;3.33;;;2.40;;
6665;SDS011;3369;49.906;8.598;2023-07-31T14:09:42;2.80;;;2.30;;
6665;SDS011;3369;49.906;8.598;2023-07-31T14:12:08;4.43;;;2.67;;
6665;SDS011;3369;49.906;8.598;2023-07-31T14:14:34;4.80;;;2.80;;
6665;SDS011;3369;49.906;8.598;2023-07-31T14:17:00;4.27;;;2.67;;
6665;SDS011;3369;49.906;8.598;2023-07-31T14:19:25;6.83;;;3.20;;
6665;SDS011;3369;49.906;8.598;2023-07-31T14:21:51;5.50;;;2.70;;
6665;SDS011;3369;49.906;8.598;2023-07-31T14:24:17;5.17;;;2.67;;
6665;SDS011;3369;49.906;8.598;2023-07-31T14:26:42;3.53;;;2.90;;
6665;SDS011;3369;49.906;8.598;2023-07-31T14:29:08;4.57;;;2.40;;
6665;SDS011;3369;49.906;8.598;2023-07-31T14:31:33;3.53;;;2.57;;
6665;SDS011;3369;49.906;8.598;2023-07-31T14:33:59;4.43;;;2.70;;
6665;SDS011;3369;49.906;8.598;2023-07-31T14:36:25;2.65;;;2.25;;
6665;SDS011;3369;49.906;8.598;2023-07-31T14:38:50;4.00;;;2.53;;
6665;SDS011;3369;49.906;8.598;2023-07-31T14:41:16;3.33;;;2.37;;
6665;SDS011;3369;49.906;8.598;2023-07-31T14:43:41;5.17;;;2.70;;
6665;SDS011;3369;49.906;8.598;2023-07-31T14:46:07;3.57;;;2.40;;
6665;SDS011;3369;49.906;8.598;2023-07-31T14:48:32;4.18;;;2.15;;
6665;SDS011;3369;49.906;8.598;2023-07-31T14:50:58;3.20;;;2.43;;
6665;SDS011;3369;49.906;8.598;2023-07-31T14:53:23;3.80;;;2.27;;
6665;SDS011;3369;49.906;8.598;2023-07-31T14:55:49;5.30;;;2.17;;
6665;SDS011;3369;49.906;8.598;2023-07-31T14:58:15;2.77;;;1.93;;
6665;SDS011;3369;49.906;8.598;2023-07-31T15:00:42;3.43;;;2.23;;
6665;SDS011;3369;49.906;8.598;2023-07-31T15:03:07;3.03;;;2.30;;
6665;SDS011;3369;49.906;8.598;2023-07-31T15:05:33;3.40;;;2.03;;
6665;SDS011;3369;49.906;8.598;2023-07-31T15:07:58;3.67;;;2.33;;
6665;SDS011;3369;49.906;8.598;2023-07-31T15:10:24;2.63;;;2.20;;
6665;SDS011;3369;49.906;8.598;2023-07-31T15:12:50;2.20;;;1.97;;
6665;SDS011;3369;49.906;8.598;2023-07-31T15:15:15;6.60;;;2.33;;
6665;SDS011;3369;49.906;8.598;2023-07-31T15:17:41;3.13;;;2.10;;
6665;SDS011;3369;49.906;8.598;2023-07-31T15:20:07;3.03;;;2.40;;
6665;SDS011;3369;49.906;8.598;2023-07-31T15:22:34;3.92;;;2.42;;
6665;SDS011;3369;49.906;8.598;2023-07-31T15:24:59;6.20;;;2.57;;
6665;SDS011;3369;49.906;8.598;2023-07-31T15:27:25;6.07;;;2.60;;
6665;SDS011;3369;49.906;8.598;2023-07-31T15:29:51;2.87;;;2.20;;
6665;SDS011;3369;49.906;8.598;2023-07-31T15:32:16;3.77;;;2.60;;